Time;durP1;ratioP1;P1;durP2;ratioP2;P2;SDS_P1;SDS_P2;PMS_P1;PMS_P2;Temp;Humidity;BMP_temperature;BMP_pressure;BME280_temperature;BME280_humidity;BME280_pressure;Samples;Min_cycle;Max_cycle;Signal;HPM_P1;HPM_P2
2023/04/02 00:00:58;;;;;;;9.05;5.43;;;;;;;2.90;94.80;100699.59;5071439;28;20695;-67
2023/04/02 00:04:04;;;;;;;7.55;6.00;;;;;;;2.90;94.80;100696.94;5069906;28;20193;-66
2023/04/02 00:06:39;;;;;;;13.80;5.43;;;;;;;2.84;93.29;100702.91;5072140;28;20185;-67
2023/04/02 00:09:30;;;;;;;12.18;4.85;;;;;;;2.91;93.54;100711.94;5067232;28;20207;-69
2023/04/02 00:12:14;;;;;;;5.85;5.10;;;;;;;2.86;92.75;100708.91;5068668;28;20613;-68
2023/04/02 00:14:50;;;;;;;6.78;5.15;;;;;;;2.87;92.95;100717.75;5070424;28;20213;-66
2023/04/02 00:17:23;;;;;;;7.18;5.50;;;;;;;2.85;92.43;100717.94;5069375;28;20758;-68
2023/04/02 00:19:58;;;;;;;6.70;5.18;;;;;;;2.87;92.69;100710.59;5069650;28;20610;-66
2023/04/02 00:22:30;;;;;;;6.35;4.78;;;;;;;2.85;91.81;100725.97;5070857;28;20220;-67
2023/04/02 00:25:03;;;;;;;8.73;5.30;;;;;;;2.87;91.74;100720.44;5068319;28;20190;-69
2023/04/02 00:27:32;;;;;;;7.40;5.15;;;;;;;2.90;92.71;100726.31;5071802;28;20832;-66
2023/04/02 00:30:03;;;;;;;6.15;5.15;;;;;;;2.89;92.29;100730.00;5070337;28;20194;-68
2023/04/02 00:32:35;;;;;;;6.85;4.80;;;;;;;2.90;91.96;100731.69;5067690;28;20193;-68
2023/04/02 00:35:10;;;;;;;5.63;5.03;;;;;;;2.86;91.80;100735.63;5053408;28;20283;-66
2023/04/02 00:37:41;;;;;;;7.50;5.28;;;;;;;2.82;91.74;100734.28;5072356;28;20273;-67
2023/04/02 00:40:19;;;;;;;6.18;5.57;;;;;;;2.79;91.43;100739.94;5071811;28;20271;-67
2023/04/02 00:42:49;;;;;;;5.55;5.05;;;;;;;2.80;91.59;100744.28;5072681;28;20206;-68
2023/04/02 00:45:27;;;;;;;5.25;4.47;;;;;;;2.82;91.57;100752.13;5076526;28;20296;-64
2023/04/02 00:48:00;;;;;;;7.28;5.07;;;;;;;2.77;91.73;100760.63;5071769;28;20244;-67
2023/04/02 00:50:35;;;;;;;8.00;5.38;;;;;;;2.80;92.19;100763.00;5072060;28;20213;-67
2023/04/02 00:53:11;;;;;;;6.25;5.75;;;;;;;2.82;92.19;100766.34;5081019;28;20275;-68
2023/04/02 00:55:42;;;;;;;7.55;5.90;;;;;;;2.81;92.28;100764.66;5079312;28;20196;-67
2023/04/02 00:58:22;;;;;;;5.95;5.00;;;;;;;2.79;91.52;100766.66;5066956;28;20222;-66
2023/04/02 01:00:52;;;;;;;9.70;6.30;;;;;;;2.79;92.04;100773.84;5069837;28;20605;-67
2023/04/02 01:03:33;;;;;;;10.85;6.75;;;;;;;2.83;91.94;100772.53;5071849;28;20276;-66
2023/04/02 01:06:09;;;;;;;5.50;4.97;;;;;;;2.79;91.57;100777.34;5051636;28;20194;-66
2023/04/02 01:08:57;;;;;;;5.00;4.50;;;;;;;2.81;91.43;100774.53;5073604;28;20208;-68
2023/04/02 01:11:43;;;;;;;5.85;4.88;;;;;;;2.84;91.81;100777.72;5066167;28;20217;-67
2023/04/02 01:14:19;;;;;;;14.75;5.05;;;;;;;2.82;90.48;100782.38;5074358;28;20220;-67
2023/04/02 01:16:59;;;;;;;11.68;4.78;;;;;;;2.81;91.05;100786.03;5072087;28;20250;-66
2023/04/02 01:19:59;;;;;;;6.43;5.45;;;;;;;2.81;91.06;100788.69;5059299;28;20766;-67
2023/04/02 01:22:35;;;;;;;6.03;5.20;;;;;;;2.80;90.55;100795.06;5074517;28;20193;-68
2023/04/02 01:25:05;;;;;;;4.90;4.45;;;;;;;2.77;90.47;100800.69;5065676;28;20185;-65
2023/04/02 01:27:43;;;;;;;7.28;6.32;;;;;;;2.80;91.01;100811.09;5070128;28;20189;-67
2023/04/02 01:30:15;;;;;;;8.88;5.90;;;;;;;2.81;89.90;100807.41;5070086;28;20454;-65
2023/04/02 01:32:44;;;;;;;4.55;4.15;;;;;;;2.77;90.65;100819.41;5078027;28;20196;-66
2023/04/02 01:35:14;;;;;;;5.07;4.60;;;;;;;2.77;91.20;100816.72;5077057;28;20199;-67
2023/04/02 01:37:50;;;;;;;10.00;4.97;;;;;;;2.79;90.86;100825.44;5058149;28;20291;-65
2023/04/02 01:40:34;;;;;;;5.82;5.32;;;;;;;2.77;89.67;100827.44;5050693;28;20205;-67
2023/04/02 01:43:12;;;;;;;10.52;5.55;;;;;;;2.82;89.63;100835.81;5073365;28;20219;-66
2023/04/02 01:45:42;;;;;;;5.45;3.90;;;;;;;2.79;89.15;100824.59;5073236;28;20198;-66
2023/04/02 01:48:18;;;;;;;5.53;5.03;;;;;;;2.83;88.80;100842.84;5076876;28;20278;-67
2023/04/02 01:50:51;;;;;;;3.95;3.55;;;;;;;2.78;87.23;100842.47;5065958;28;20186;-67
2023/04/02 01:53:23;;;;;;;5.50;4.20;;;;;;;2.78;85.96;100855.84;5050971;28;20193;-65
2023/04/02 01:55:54;;;;;;;7.85;5.32;;;;;;;2.80;85.98;100856.53;5054011;28;20201;-67
2023/04/02 01:58:26;;;;;;;5.20;4.18;;;;;;;2.81;86.36;100866.19;5052925;28;20217;-66
2023/04/02 02:01:02;;;;;;;6.53;4.30;;;;;;;2.83;85.97;100861.56;5055699;28;20229;-66
2023/04/02 02:03:32;;;;;;;5.43;3.53;;;;;;;2.84;85.32;100871.28;5057199;28;20196;-66
2023/04/02 02:06:05;;;;;;;5.15;3.90;;;;;;;2.78;84.76;100871.88;5053281;28;20201;-67
2023/04/02 02:08:39;;;;;;;5.95;3.45;;;;;;;2.78;85.31;100879.03;5073230;28;20221;-66
2023/04/02 02:11:15;;;;;;;5.05;4.43;;;;;;;2.78;85.57;100882.56;5057974;28;20186;-67
2023/04/02 02:13:48;;;;;;;5.45;4.60;;;;;;;2.80;84.41;100888.59;5072505;28;20193;-68
2023/04/02 02:16:19;;;;;;;4.28;3.88;;;;;;;2.80;84.34;100901.97;5066661;28;20233;-67
2023/04/02 02:18:52;;;;;;;4.85;4.18;;;;;;;2.82;84.31;100909.81;5065672;28;20209;-67
2023/04/02 02:21:35;;;;;;;5.00;4.50;;;;;;;2.82;83.34;100918.66;5073826;28;20213;-68
2023/04/02 02:24:07;;;;;;;5.30;4.72;;;;;;;2.82;82.75;100917.81;5055721;28;20200;-66
2023/04/02 02:26:37;;;;;;;6.45;3.70;;;;;;;2.83;82.48;100925.69;5073944;28;20220;-65
2023/04/02 02:29:11;;;;;;;4.65;4.22;;;;;;;2.80;83.24;100918.00;5049044;28;20226;-67
2023/04/02 02:31:44;;;;;;;5.72;4.65;;;;;;;2.79;83.44;100924.31;5053131;28;20198;-67
2023/04/02 02:34:21;;;;;;;5.90;4.65;;;;;;;2.78;83.78;100928.00;5051189;28;20233;-66
2023/04/02 02:36:54;;;;;;;6.35;4.20;;;;;;;2.78;84.03;100925.31;5054062;28;20189;-67
2023/04/02 02:39:30;;;;;;;6.25;4.55;;;;;;;2.82;84.06;100929.34;5060873;28;20255;-66
2023/04/02 02:42:04;;;;;;;6.80;3.75;;;;;;;2.93;84.48;100942.50;5073716;28;20201;-67
2023/04/02 02:44:37;;;;;;;4.25;3.85;;;;;;;2.85;83.61;100941.59;5060306;28;20226;-68
2023/04/02 02:47:14;;;;;;;8.73;4.13;;;;;;;2.81;84.24;100949.06;5084394;28;20186;-69
2023/04/02 02:49:48;;;;;;;5.28;4.32;;;;;;;2.78;84.42;100952.03;5066507;28;20227;-65
2023/04/02 02:52:21;;;;;;;5.13;3.30;;;;;;;2.81;84.13;100951.72;5063416;28;20282;-68
2023/04/02 02:54:59;;;;;;;5.00;3.90;;;;;;;2.81;83.41;100954.41;5071808;28;20205;-68
2023/04/02 02:57:40;;;;;;;5.03;4.55;;;;;;;2.80;83.59;100960.75;5075045;28;20196;-67
2023/04/02 03:00:12;;;;;;;2.90;2.65;;;;;;;2.86;84.32;100965.47;5064673;28;20193;-67
2023/04/02 03:02:44;;;;;;;5.20;3.33;;;;;;;2.81;84.24;100967.75;5059047;28;20217;-67
2023/04/02 03:05:20;;;;;;;5.85;3.40;;;;;;;2.82;84.27;100973.94;5066021;28;20831;-68
2023/04/02 03:07:54;;;;;;;4.00;3.58;;;;;;;2.83;85.11;100976.47;5054630;28;20251;-69
2023/04/02 03:10:34;;;;;;;4.50;4.00;;;;;;;2.81;85.38;100978.44;5058285;28;20212;-68
2023/04/02 03:13:12;;;;;;;3.85;3.08;;;;;;;2.84;84.47;100988.88;5064671;28;20250;-68
2023/04/02 03:15:49;;;;;;;5.15;3.65;;;;;;;2.84;85.25;100988.00;5059445;28;20202;-66
2023/04/02 03:18:31;;;;;;;4.15;3.40;;;;;;;2.86;84.97;100996.72;5056495;28;20214;-68
2023/04/02 03:21:06;;;;;;;3.78;3.33;;;;;;;2.87;85.64;100999.25;5058430;28;20253;-67
2023/04/02 03:23:40;;;;;;;3.03;2.72;;;;;;;2.86;85.43;101002.91;5062278;28;20296;-68
2023/04/02 03:26:17;;;;;;;4.68;3.53;;;;;;;2.85;85.32;101005.75;5065092;28;20189;-67
2023/04/02 03:28:56;;;;;;;3.78;3.30;;;;;;;2.85;85.02;101006.59;5081910;28;20212;-65
2023/04/02 03:31:32;;;;;;;6.50;3.72;;;;;;;2.81;84.41;101015.06;5081659;28;20185;-65
2023/04/02 03:34:09;;;;;;;3.97;3.60;;;;;;;2.78;85.36;101018.84;5057226;28;20203;-65
2023/04/02 03:36:48;;;;;;;5.03;4.28;;;;;;;2.78;85.29;101024.19;5079227;28;20558;-66
2023/04/02 03:39:22;;;;;;;5.05;3.50;;;;;;;2.82;85.46;101022.06;5069714;28;20738;-67
2023/04/02 03:41:58;;;;;;;7.68;3.55;;;;;;;2.82;85.42;101027.41;5063565;28;20212;-66
2023/04/02 03:44:31;;;;;;;4.63;3.95;;;;;;;2.84;85.80;101033.47;5066382;28;20559;-65
2023/04/02 03:47:10;;;;;;;4.55;3.97;;;;;;;2.85;85.72;101044.00;5055046;28;20670;-65
2023/04/02 03:49:46;;;;;;;4.65;3.97;;;;;;;2.84;86.17;101047.66;5052178;28;20213;-68
2023/04/02 03:52:22;;;;;;;3.45;3.03;;;;;;;2.89;86.09;101048.06;5048233;28;20201;-67
2023/04/02 03:54:51;;;;;;;4.15;3.85;;;;;;;2.85;86.59;101054.69;5072057;28;20255;-67
2023/04/02 03:57:31;;;;;;;7.30;3.72;;;;;;;2.85;86.72;101060.03;5055476;28;20200;-66
2023/04/02 04:00:05;;;;;;;4.40;3.60;;;;;;;2.90;86.68;101059.59;5049007;28;20666;-68
2023/04/02 04:02:46;;;;;;;3.60;3.22;;;;;;;2.86;86.55;101067.06;5064930;28;20218;-67
2023/04/02 04:05:26;;;;;;;5.53;3.35;;;;;;;2.84;85.58;101069.03;5053635;28;20220;-67
2023/04/02 04:08:00;;;;;;;3.47;2.78;;;;;;;2.85;84.47;101070.72;5049317;28;20290;-66
2023/04/02 04:10:31;;;;;;;7.15;3.60;;;;;;;2.87;84.02;101073.25;5068446;28;20580;-66
2023/04/02 04:13:06;;;;;;;3.83;3.50;;;;;;;2.86;84.25;101085.75;5070142;28;20243;-68
2023/04/02 04:15:40;;;;;;;3.03;2.72;;;;;;;2.84;84.85;101090.44;5071084;28;20201;-66
2023/04/02 04:18:18;;;;;;;7.93;4.63;;;;;;;2.87;84.60;101091.94;5053585;28;20216;-67
2023/04/02 04:20:55;;;;;;;4.45;3.80;;;;;;;2.91;84.49;101096.84;5053926;28;20192;-66
2023/04/02 04:23:32;;;;;;;3.45;3.15;;;;;;;2.91;84.04;101096.84;5054466;28;20307;-66
2023/04/02 04:26:09;;;;;;;9.07;3.60;;;;;;;2.92;84.54;101106.56;5053034;28;20737;-66
2023/04/02 04:28:47;;;;;;;4.13;3.80;;;;;;;2.90;84.42;101111.22;5053680;28;20721;-65
2023/04/02 04:31:23;;;;;;;4.82;3.40;;;;;;;2.88;84.81;101115.88;5053630;28;20315;-68
2023/04/02 04:34:03;;;;;;;7.60;3.97;;;;;;;2.94;85.08;101122.47;5050648;28;20767;-67
2023/04/02 04:36:53;;;;;;;7.30;4.00;;;;;;;2.91;85.03;101123.59;5052551;28;20621;-68
2023/04/02 04:39:34;;;;;;;5.88;2.95;;;;;;;2.98;84.90;101137.22;5057296;28;20222;-68
2023/04/02 04:42:05;;;;;;;3.60;3.30;;;;;;;2.91;84.96;101134.28;5050991;28;20594;-66
2023/04/02 04:44:43;;;;;;;5.57;3.35;;;;;;;2.91;85.34;101130.75;5073456;28;20201;-65
2023/04/02 04:47:20;;;;;;;8.05;3.40;;;;;;;2.98;84.68;101146.06;5059155;28;20279;-68
2023/04/02 04:49:56;;;;;;;3.83;3.30;;;;;;;2.94;84.37;101144.69;5057255;28;20314;-64
2023/04/02 04:52:29;;;;;;;3.45;3.15;;;;;;;2.92;84.86;101146.66;5082565;28;20568;-66
2023/04/02 04:55:00;;;;;;;6.47;3.45;;;;;;;2.93;85.51;101161.72;5056158;28;20237;-64
2023/04/02 04:57:34;;;;;;;5.82;3.78;;;;;;;2.91;85.34;101160.16;5075547;28;20196;-66
2023/04/02 05:00:16;;;;;;;6.57;3.38;;;;;;;2.95;85.94;101167.75;5051146;28;20703;-65
2023/04/02 05:02:51;;;;;;;5.32;3.53;;;;;;;2.95;85.62;101173.09;5050070;28;20237;-67
2023/04/02 05:05:28;;;;;;;4.50;3.40;;;;;;;2.96;85.60;101176.59;5065194;28;20200;-65
2023/04/02 05:08:04;;;;;;;4.05;3.55;;;;;;;3.08;85.15;101187.97;5051799;28;20641;-65
2023/04/02 05:10:40;;;;;;;6.63;3.95;;;;;;;3.13;85.65;101197.25;5054628;28;20200;-66
2023/04/02 05:13:16;;;;;;;7.15;3.65;;;;;;;3.18;85.52;101194.13;5056550;28;20201;-65
2023/04/02 05:15:52;;;;;;;7.18;2.75;;;;;;;3.05;84.73;101192.63;5065350;28;20200;-68
2023/04/02 05:18:28;;;;;;;4.00;3.63;;;;;;;3.02;85.44;101205.44;5056324;28;20710;-67
2023/04/02 05:21:05;;;;;;;3.67;2.47;;;;;;;3.00;84.84;101224.28;5056536;28;20227;-68
2023/04/02 05:23:45;;;;;;;6.00;3.03;;;;;;;3.01;85.42;101217.97;5062596;28;20217;-67
2023/04/02 05:26:19;;;;;;;3.20;2.47;;;;;;;3.03;85.24;101218.66;5070222;28;20304;-67
2023/04/02 05:28:57;;;;;;;3.30;2.30;;;;;;;3.09;84.38;101227.09;5081342;28;20224;-67
2023/04/02 05:31:35;;;;;;;4.72;2.90;;;;;;;3.11;84.71;101219.75;5051260;28;20188;-67
2023/04/02 05:34:05;;;;;;;4.15;2.17;;;;;;;3.11;84.46;101233.13;5056691;28;20189;-68
2023/04/02 05:36:34;;;;;;;4.68;2.50;;;;;;;3.26;84.51;101229.00;5055539;28;20377;-64
2023/04/02 05:39:09;;;;;;;10.70;3.05;;;;;;;3.22;84.50;101227.59;5048468;28;20297;-68
2023/04/02 05:41:48;;;;;;;6.38;2.72;;;;;;;3.22;83.90;101243.66;5054582;28;20203;-68
2023/04/02 05:44:31;;;;;;;2.80;1.65;;;;;;;3.25;84.00;101248.69;5098355;22;20288;-65
2023/04/02 05:47:12;;;;;;;2.75;1.70;;;;;;;3.22;83.41;101252.53;5056617;28;20192;-66
2023/04/02 05:49:47;;;;;;;3.78;1.98;;;;;;;3.28;82.94;101259.13;5074664;28;20811;-64
2023/04/02 05:52:23;;;;;;;3.92;2.00;;;;;;;3.28;82.56;101243.06;5075244;28;20208;-66
2023/04/02 05:54:58;;;;;;;2.95;1.95;;;;;;;3.26;81.22;101263.75;5095685;28;20191;-65
2023/04/02 05:57:34;;;;;;;2.47;1.60;;;;;;;3.31;80.91;101267.69;5068633;28;20679;-66
2023/04/02 06:00:20;;;;;;;3.08;2.28;;;;;;;3.31;80.65;101266.84;5095999;28;20260;-66
2023/04/02 06:02:58;;;;;;;3.08;2.03;;;;;;;3.37;80.55;101271.63;5075844;28;20579;-65
2023/04/02 06:05:35;;;;;;;6.97;1.95;;;;;;;3.41;81.21;101281.03;5065611;28;20201;-66
2023/04/02 06:08:08;;;;;;;3.25;1.48;;;;;;;3.40;81.21;101290.03;5088875;28;20647;-65
2023/04/02 06:10:48;;;;;;;4.30;1.77;;;;;;;3.65;81.22;101289.38;5073656;28;20246;-66
2023/04/02 06:13:19;;;;;;;2.20;1.40;;;;;;;3.55;80.44;101293.94;5076225;28;20223;-68
2023/04/02 06:15:49;;;;;;;9.80;1.75;;;;;;;3.56;80.43;101306.31;5076893;28;20201;-66
2023/04/02 06:18:25;;;;;;;4.47;2.25;;;;;;;3.65;79.76;101305.44;5076117;28;20322;-65
2023/04/02 06:20:56;;;;;;;3.20;2.42;;;;;;;3.68;78.96;101307.00;5084813;28;20246;-70
2023/04/02 06:23:31;;;;;;;6.85;2.03;;;;;;;3.86;77.95;101314.09;5070091;28;20265;-67
2023/04/02 06:26:09;;;;;;;2.67;1.50;;;;;;;3.85;77.45;101317.75;5075832;28;20643;-66
2023/04/02 06:28:46;;;;;;;4.53;2.50;;;;;;;4.01;77.65;101322.47;5075667;28;20221;-66
2023/04/02 06:31:25;;;;;;;8.32;6.05;;;;;;;4.19;76.23;101320.66;5076376;28;20217;-66
2023/04/02 06:33:56;;;;;;;5.70;4.53;;;;;;;4.12;75.98;101324.06;5075209;28;20254;-66
2023/04/02 06:36:28;;;;;;;2.78;2.17;;;;;;;4.19;75.91;101330.53;5074951;28;20201;-67
2023/04/02 06:39:07;;;;;;;5.13;4.63;;;;;;;4.23;75.07;101348.84;5073582;28;20209;-67
2023/04/02 06:41:38;;;;;;;4.22;1.83;;;;;;;4.10;74.47;101340.31;5075115;28;20736;-65
2023/04/02 06:44:26;;;;;;;2.55;1.80;;;;;;;3.99;74.93;101340.50;5072755;28;20692;-68
2023/04/02 06:47:31;;;;;;;15.32;13.95;;;;;;;4.01;74.77;101353.75;5096618;28;20207;-66
2023/04/02 06:50:06;;;;;;;12.73;5.55;;;;;;;4.10;74.47;101363.56;5076486;28;20204;-67
2023/04/02 06:52:40;;;;;;;10.45;9.23;;;;;;;4.10;74.38;101352.84;5075773;28;20675;-66
2023/04/02 06:55:31;;;;;;;4.30;3.90;;;;;;;4.14;74.18;101371.16;5075701;28;20276;-68
2023/04/02 06:58:03;;;;;;;4.82;1.90;;;;;;;4.26;72.87;101371.81;5081105;28;20250;-66
2023/04/02 07:00:37;;;;;;;6.30;4.05;;;;;;;4.29;71.83;101368.81;5075286;28;20206;-68
2023/04/02 07:03:14;;;;;;;5.50;2.30;;;;;;;4.18;72.28;101372.53;5070108;28;20289;-65
2023/04/02 07:05:44;;;;;;;3.13;2.05;;;;;;;4.19;71.73;101373.38;5074579;28;20443;-66
2023/04/02 07:08:13;;;;;;;3.20;2.60;;;;;;;4.20;71.78;101381.28;5072214;28;20223;-66
2023/04/02 07:10:42;;;;;;;5.47;2.88;;;;;;;4.36;71.65;101378.78;5071954;28;21437;-65
2023/04/02 07:13:15;;;;;;;3.45;1.58;;;;;;;4.59;71.53;101384.56;5061451;28;20311;-66
2023/04/02 07:15:46;;;;;;;2.05;1.20;;;;;;;4.29;70.08;101374.19;5073674;28;20190;-67
2023/04/02 07:18:24;;;;;;;5.00;1.95;;;;;;;4.38;69.57;101387.53;5064777;28;20226;-66
2023/04/02 07:20:53;;;;;;;3.83;2.00;;;;;;;4.37;69.59;101391.19;5074990;28;20196;-65
2023/04/02 07:23:24;;;;;;;3.35;2.45;;;;;;;4.49;68.81;101401.72;5072107;28;20259;-66
2023/04/02 07:25:54;;;;;;;5.50;3.65;;;;;;;4.29;68.41;101396.47;5084101;28;20192;-66
2023/04/02 07:28:25;;;;;;;3.30;1.58;;;;;;;4.22;68.40;101405.22;5079730;28;20221;-66
2023/04/02 07:30:55;;;;;;;6.00;1.90;;;;;;;4.45;68.22;101394.97;5086980;28;20186;-65
2023/04/02 07:33:26;;;;;;;6.78;1.55;;;;;;;4.49;66.53;101413.28;5086976;28;20729;-64
2023/04/02 07:35:57;;;;;;;3.22;1.70;;;;;;;4.40;66.43;101408.81;5089893;28;20190;-65
2023/04/02 07:38:26;;;;;;;5.90;1.63;;;;;;;4.41;66.62;101407.81;5086001;28;20249;-65
2023/04/02 07:40:55;;;;;;;3.67;2.35;;;;;;;4.61;66.51;101405.84;5092238;28;20656;-65
2023/04/02 07:43:25;;;;;;;3.00;1.73;;;;;;;4.68;65.60;101418.50;5089568;28;20225;-65
2023/04/02 07:45:54;;;;;;;2.70;1.83;;;;;;;4.84;65.57;101423.22;5092627;28;20251;-64
2023/04/02 07:48:23;;;;;;;4.18;2.33;;;;;;;4.77;65.61;101428.31;5094053;28;20241;-65
2023/04/02 07:50:52;;;;;;;3.03;1.60;;;;;;;4.71;65.81;101434.28;5086664;28;20220;-66
2023/04/02 07:53:29;;;;;;;1.70;1.52;;;;;;;4.80;66.11;101444.09;5089632;28;20193;-65
2023/04/02 07:55:59;;;;;;;4.60;1.58;;;;;;;4.80;65.42;101444.09;5088779;28;20202;-65
2023/04/02 07:58:31;;;;;;;7.13;2.60;;;;;;;4.81;65.36;101451.16;5089230;28;20213;-68
2023/04/02 08:01:02;;;;;;;3.55;2.22;;;;;;;4.78;64.47;101446.09;5091875;28;20204;-66
2023/04/02 08:03:31;;;;;;;3.28;1.80;;;;;;;5.12;64.47;101458.84;5085395;28;20738;-66
2023/04/02 08:06:01;;;;;;;5.50;1.42;;;;;;;5.12;64.08;101466.91;5089075;28;20197;-67
2023/04/02 08:08:29;;;;;;;4.05;1.98;;;;;;;4.88;64.55;101472.88;5089434;28;20267;-68
2023/04/02 08:10:58;;;;;;;6.18;2.05;;;;;;;5.05;64.66;101473.84;5093893;28;20182;-66
2023/04/02 08:13:30;;;;;;;2.05;1.65;;;;;;;5.02;64.75;101479.53;5094885;28;20197;-66
2023/04/02 08:16:00;;;;;;;3.40;1.70;;;;;;;4.89;65.91;101476.38;5092540;28;20232;-68
2023/04/02 08:18:29;;;;;;;2.95;2.42;;;;;;;5.15;66.47;101480.84;5088936;28;20220;-66
2023/04/02 08:20:59;;;;;;;5.20;4.45;;;;;;;4.99;67.14;101483.34;5097876;28;20578;-66
2023/04/02 08:23:28;;;;;;;2.55;2.35;;;;;;;4.93;67.75;101491.19;5099714;28;20201;-66
2023/04/02 08:25:57;;;;;;;5.93;2.35;;;;;;;4.96;68.00;101486.34;5097120;28;20235;-66
2023/04/02 08:28:26;;;;;;;3.60;2.90;;;;;;;4.81;68.63;101493.22;5096210;28;20229;-68
2023/04/02 08:30:57;;;;;;;3.17;1.30;;;;;;;5.02;67.45;101495.63;5096471;28;20189;-67
2023/04/02 08:33:27;;;;;;;3.75;1.65;;;;;;;5.04;67.71;101499.84;5077243;28;20202;-66
2023/04/02 08:35:55;;;;;;;7.40;3.33;;;;;;;4.85;68.00;101515.19;5102332;28;20221;-66
2023/04/02 08:38:25;;;;;;;2.95;2.40;;;;;;;4.75;67.94;101509.91;5092872;28;20313;-66
2023/04/02 08:40:59;;;;;;;3.45;2.75;;;;;;;4.78;68.10;101515.81;5091934;28;20197;-66
2023/04/02 08:43:56;;;;;;;3.65;2.10;;;;;;;4.78;68.12;101518.50;5092544;28;20204;-67
2023/04/02 08:46:30;;;;;;;4.00;1.70;;;;;;;4.74;67.93;101518.97;5074004;28;20300;-65
2023/04/02 08:49:04;;;;;;;2.60;1.77;;;;;;;4.88;67.78;101525.66;5090323;28;20274;-65
2023/04/02 08:51:36;;;;;;;7.20;1.80;;;;;;;4.87;67.57;101534.69;5092247;28;20193;-65
2023/04/02 08:54:16;;;;;;;6.55;2.40;;;;;;;4.88;67.82;101537.22;5094138;28;20190;-64
2023/04/02 08:56:51;;;;;;;4.20;1.75;;;;;;;4.70;67.42;101536.31;5091246;28;20204;-64
2023/04/02 08:59:30;;;;;;;7.07;2.38;;;;;;;4.53;67.19;101537.97;5090371;28;20259;-67
2023/04/02 09:02:14;;;;;;;3.78;2.22;;;;;;;4.71;65.86;101546.91;5092123;28;20194;-65
2023/04/02 09:04:43;;;;;;;2.15;1.70;;;;;;;5.07;64.41;101547.00;5094587;28;20638;-66
2023/04/02 09:07:15;;;;;;;5.40;2.20;;;;;;;5.18;62.64;101549.47;5093995;28;20216;-65
2023/04/02 09:09:48;;;;;;;2.45;1.20;;;;;;;5.51;62.61;101546.13;5090709;28;20211;-66
2023/04/02 09:12:20;;;;;;;5.95;2.05;;;;;;;5.69;59.99;101560.38;5087792;28;20247;-66
2023/04/02 09:15:02;;;;;;;4.57;1.85;;;;;;;5.55;60.76;101557.38;5076782;28;20243;-65
2023/04/02 09:17:33;;;;;;;3.08;1.75;;;;;;;5.31;60.66;101558.00;5093031;28;20736;-67
2023/04/02 09:20:17;;;;;;;2.72;1.73;;;;;;;5.54;61.62;101564.59;5093860;28;20663;-66
2023/04/02 09:22:49;;;;;;;5.10;1.60;;;;;;;5.59;59.96;101564.97;5073380;28;20205;-64
2023/04/02 09:25:21;;;;;;;3.70;1.52;;;;;;;5.62;60.94;101569.19;5094615;28;20202;-66
2023/04/02 09:27:53;;;;;;;2.65;1.50;;;;;;;5.60;59.79;101555.09;5093599;28;20247;-66
2023/04/02 09:30:37;;;;;;;3.20;1.52;;;;;;;5.73;58.97;101565.44;5075969;28;20248;-66
2023/04/02 09:33:08;;;;;;;4.70;1.75;;;;;;;5.88;58.51;101559.38;5075258;28;20280;-67
2023/04/02 09:35:53;;;;;;;1.67;1.17;;;;;;;5.83;57.91;101555.44;5088502;28;20194;-65
2023/04/02 09:38:24;;;;;;;2.15;1.52;;;;;;;5.96;57.68;101570.19;5090777;28;20218;-66
2023/04/02 09:41:00;;;;;;;2.63;1.30;;;;;;;6.21;57.82;101570.38;5074781;28;20730;-66
2023/04/02 09:43:30;;;;;;;50.03;38.58;;;;;;;6.33;57.29;101564.59;5086486;28;20693;-66
2023/04/02 09:46:02;;;;;;;4.90;1.40;;;;;;;6.72;55.75;101580.28;5090393;28;20267;-66
2023/04/02 09:48:36;;;;;;;46.72;30.45;;;;;;;6.90;56.97;101578.34;5093973;28;20229;-66
2023/04/02 09:51:12;;;;;;;2.85;1.50;;;;;;;6.95;55.71;101582.22;5093124;28;20185;-66
2023/04/02 09:53:44;;;;;;;2.53;2.28;;;;;;;7.05;56.04;101592.88;5075263;28;20202;-65
2023/04/02 09:56:17;;;;;;;2.25;1.23;;;;;;;7.57;54.66;101596.22;5086793;28;20194;-65
2023/04/02 09:59:01;;;;;;;7.95;1.98;;;;;;;8.11;52.65;101591.19;5074706;28;20211;-65
2023/04/02 10:01:33;;;;;;;18.80;14.20;;;;;;;7.84;53.12;101600.47;5097589;28;20194;-65
2023/04/02 10:04:06;;;;;;;3.58;3.28;;;;;;;7.41;53.95;101605.09;5094589;28;20223;-66
2023/04/02 10:06:35;;;;;;;3.25;1.58;;;;;;;7.55;54.21;101616.25;5094204;28;20646;-67
2023/04/02 10:09:29;;;;;;;2.85;1.10;;;;;;;8.15;54.29;101624.88;5089843;28;20694;-65
2023/04/02 10:11:59;;;;;;;3.17;1.38;;;;;;;7.97;54.54;101626.91;5095326;28;20664;-65
2023/04/02 10:14:33;;;;;;;3.85;3.45;;;;;;;7.19;53.92;101632.63;5093403;28;20742;-66
2023/04/02 10:17:08;;;;;;;2.25;1.65;;;;;;;6.87;54.26;101629.78;5090495;28;20193;-64
2023/04/02 10:19:41;;;;;;;11.93;2.63;;;;;;;6.79;54.25;101637.78;5092997;28;20596;-65
2023/04/02 10:22:15;;;;;;;7.63;1.30;;;;;;;6.60;54.29;101640.72;5090217;28;20194;-67
2023/04/02 10:24:45;;;;;;;4.07;1.77;;;;;;;6.50;54.90;101644.34;5088143;28;20699;-66
2023/04/02 10:27:24;;;;;;;4.55;3.65;;;;;;;6.55;54.79;101651.94;5092943;28;20194;-66
2023/04/02 10:30:04;;;;;;;13.05;2.10;;;;;;;6.57;54.22;101641.03;5093780;28;20242;-64
2023/04/02 10:32:39;;;;;;;2.95;1.63;;;;;;;6.92;53.65;101640.91;5095197;28;20194;-65
2023/04/02 10:35:19;;;;;;;5.95;1.80;;;;;;;7.30;52.98;101639.56;5087171;28;20600;-65
2023/04/02 10:38:19;;;;;;;4.80;1.50;;;;;;;7.62;52.75;101644.19;5094771;28;20200;-65
2023/04/02 10:40:53;;;;;;;4.85;1.65;;;;;;;7.72;51.97;101650.28;5094028;28;20198;-65
2023/04/02 10:43:53;;;;;;;2.28;1.38;;;;;;;8.04;52.33;101644.94;5087105;28;20208;-66
2023/04/02 10:46:27;;;;;;;2.10;1.10;;;;;;;7.84;52.18;101654.38;5092016;28;20697;-64
2023/04/02 10:49:08;;;;;;;5.85;2.40;;;;;;;7.41;53.42;101653.56;5087928;28;20238;-67
2023/04/02 10:51:44;;;;;;;4.88;1.90;;;;;;;7.31;53.88;101652.84;5087235;28;20180;-67
2023/04/02 10:54:30;;;;;;;4.97;1.92;;;;;;;7.33;54.19;101661.63;5087394;28;20201;-67
2023/04/02 10:57:06;;;;;;;5.43;2.92;;;;;;;7.39;54.52;101670.91;5092212;28;20176;-66
2023/04/02 10:59:39;;;;;;;5.05;2.05;;;;;;;7.55;54.89;101678.19;5092098;28;20226;-67
2023/04/02 11:02:24;;;;;;;3.55;2.03;;;;;;;7.43;54.65;101673.09;5087862;28;20191;-64
2023/04/02 11:04:56;;;;;;;2.00;1.17;;;;;;;7.46;54.61;101684.53;5094010;28;20627;-65
2023/04/02 11:07:36;;;;;;;4.15;1.58;;;;;;;7.22;54.54;101680.75;5091621;28;20241;-66
2023/04/02 11:10:06;;;;;;;3.60;1.67;;;;;;;6.99;54.52;101702.00;5086134;28;20255;-67
2023/04/02 11:12:46;;;;;;;3.05;1.38;;;;;;;6.80;55.13;101690.59;5093335;28;20185;-65
2023/04/02 11:15:18;;;;;;;4.80;1.98;;;;;;;6.93;55.74;101708.00;5091299;28;20199;-68
2023/04/02 11:17:47;;;;;;;2.33;1.90;;;;;;;7.21;54.44;101710.53;5092739;28;20630;-67
2023/04/02 11:20:43;;;;;;;2.70;1.27;;;;;;;6.65;54.84;101702.94;5091489;28;20195;-67
2023/04/02 11:23:17;;;;;;;1.95;1.45;;;;;;;6.68;55.43;101716.91;5094341;28;20205;-67
2023/04/02 11:25:47;;;;;;;3.35;1.70;;;;;;;6.91;53.31;101709.19;5095548;28;20306;-67
2023/04/02 11:28:27;;;;;;;3.65;1.83;;;;;;;7.25;52.97;101723.50;5093048;28;20711;-65
2023/04/02 11:30:58;;;;;;;5.18;1.85;;;;;;;7.76;52.08;101716.28;5089878;28;20190;-65
2023/04/02 11:33:40;;;;;;;5.10;2.05;;;;;;;7.64;51.46;101720.31;5086929;28;20188;-65
2023/04/02 11:36:49;;;;;;;6.22;1.98;;;;;;;7.99;51.12;101711.97;5091518;28;20193;-66
2023/04/02 11:39:50;;;;;;;4.78;1.80;;;;;;;8.15;50.50;101717.41;5059045;28;20220;-67
2023/04/02 11:42:37;;;;;;;6.97;2.83;;;;;;;8.44;50.52;101721.50;5085477;28;20207;-66
2023/04/02 11:45:45;;;;;;;3.53;1.90;;;;;;;8.44;50.09;101722.34;5073319;22;20221;-68
2023/04/02 11:48:29;;;;;;;7.10;1.52;;;;;;;8.34;50.37;101726.22;5024991;28;20256;-67
2023/04/02 11:51:03;;;;;;;4.63;1.30;;;;;;;8.66;50.26;101715.44;5053822;28;20197;-69
2023/04/02 11:53:34;;;;;;;4.35;2.08;;;;;;;8.33;51.22;101736.16;5055589;28;20201;-67
2023/04/02 11:56:22;;;;;;;3.70;2.00;;;;;;;7.93;51.69;101744.16;5034550;28;20199;-68
2023/04/02 11:59:04;;;;;;;5.88;2.15;;;;;;;8.19;51.58;101745.72;5055062;28;20692;-69
2023/04/02 12:02:04;;;;;;;3.15;1.50;;;;;;;7.81;51.83;101746.28;5055550;28;20217;-68
2023/04/02 12:05:08;;;;;;;4.25;2.40;;;;;;;7.97;51.41;101751.75;5050768;28;20204;-67
2023/04/02 12:08:13;;;;;;;4.10;2.00;;;;;;;7.92;52.11;101754.09;5052757;28;20283;-68
2023/04/02 12:10:57;;;;;;;3.13;1.63;;;;;;;7.88;51.96;101760.81;5052478;28;20205;-68
2023/04/02 12:13:53;;;;;;;5.25;1.92;;;;;;;8.06;51.54;101755.28;5062483;28;20193;-66